sensor_id;sensor_type;location;lat;lon;timestamp;temperature;humidity
16064;DHT22;8136;53.172;8.256;2023-02-26T00:02:07;2.00;99.90
16064;DHT22;8136;53.172;8.256;2023-02-26T00:04:35;1.90;99.90
16064;DHT22;8136;53.172;8.256;2023-02-26T00:07:03;1.90;99.90
16064;DHT22;8136;53.172;8.256;2023-02-26T00:09:30;1.90;99.90
16064;DHT22;8136;53.172;8.256;2023-02-26T00:11:58;1.80;99.90
16064;DHT22;8136;53.172;8.256;2023-02-26T00:14:26;1.80;99.90
16064;DHT22;8136;53.172;8.256;2023-02-26T00:17:05;1.90;99.90
16064;DHT22;8136;53.172;8.256;2023-02-26T00:19:33;1.80;99.90
16064;DHT22;8136;53.172;8.256;2023-02-26T00:22:01;1.70;99.90
16064;DHT22;8136;53.172;8.256;2023-02-26T00:24:29;1.70;99.90
16064;DHT22;8136;53.172;8.256;2023-02-26T00:26:56;1.80;99.90
16064;DHT22;8136;53.172;8.256;2023-02-26T00:29:23;1.70;99.90
16064;DHT22;8136;53.172;8.256;2023-02-26T00:31:50;1.70;99.90
16064;DHT22;8136;53.172;8.256;2023-02-26T00:34:18;1.70;99.90
16064;DHT22;8136;53.172;8.256;2023-02-26T00:36:49;1.80;99.90
16064;DHT22;8136;53.172;8.256;2023-02-26T00:39:31;1.70;99.90
16064;DHT22;8136;53.172;8.256;2023-02-26T00:42:01;1.70;99.90
16064;DHT22;8136;53.172;8.256;2023-02-26T00:44:28;1.70;99.90
16064;DHT22;8136;53.172;8.256;2023-02-26T00:47:02;1.70;99.90
16064;DHT22;8136;53.172;8.256;2023-02-26T00:49:52;1.60;99.90
16064;DHT22;8136;53.172;8.256;2023-02-26T00:52:26;1.70;99.90
16064;DHT22;8136;53.172;8.256;2023-02-26T00:54:55;1.70;99.90
16064;DHT22;8136;53.172;8.256;2023-02-26T00:57:22;1.70;99.90
16064;DHT22;8136;53.172;8.256;2023-02-26T00:59:49;1.60;99.90
16064;DHT22;8136;53.172;8.256;2023-02-26T01:02:15;1.60;99.90
16064;DHT22;8136;53.172;8.256;2023-02-26T01:04:43;1.50;99.90
16064;DHT22;8136;53.172;8.256;2023-02-26T01:07:11;1.60;99.90
16064;DHT22;8136;53.172;8.256;2023-02-26T01:09:39;1.50;99.90
16064;DHT22;8136;53.172;8.256;2023-02-26T01:12:09;1.40;99.90
16064;DHT22;8136;53.172;8.256;2023-02-26T01:14:38;1.40;99.90
16064;DHT22;8136;53.172;8.256;2023-02-26T01:17:10;1.40;99.90
16064;DHT22;8136;53.172;8.256;2023-02-26T01:19:43;1.50;99.90
16064;DHT22;8136;53.172;8.256;2023-02-26T01:22:14;1.50;99.90
16064;DHT22;8136;53.172;8.256;2023-02-26T01:24:44;1.50;99.90
16064;DHT22;8136;53.172;8.256;2023-02-26T01:27:13;1.50;99.90
16064;DHT22;8136;53.172;8.256;2023-02-26T01:29:40;1.50;99.90
16064;DHT22;8136;53.172;8.256;2023-02-26T01:32:14;1.40;99.90
16064;DHT22;8136;53.172;8.256;2023-02-26T01:34:46;1.50;99.90
16064;DHT22;8136;53.172;8.256;2023-02-26T01:37:21;1.40;99.90
16064;DHT22;8136;53.172;8.256;2023-02-26T01:40:02;1.40;99.90
16064;DHT22;8136;53.172;8.256;2023-02-26T01:42:43;1.40;99.90
16064;DHT22;8136;53.172;8.256;2023-02-26T01:45:15;1.40;99.90
16064;DHT22;8136;53.172;8.256;2023-02-26T01:47:48;1.40;99.90
16064;DHT22;8136;53.172;8.256;2023-02-26T01:50:20;1.40;99.90
16064;DHT22;8136;53.172;8.256;2023-02-26T01:53:18;1.40;99.90
16064;DHT22;8136;53.172;8.256;2023-02-26T01:55:49;1.40;99.90
16064;DHT22;8136;53.172;8.256;2023-02-26T01:58:19;1.40;99.90
16064;DHT22;8136;53.172;8.256;2023-02-26T02:00:47;1.40;99.90
16064;DHT22;8136;53.172;8.256;2023-02-26T02:03:13;1.40;99.90
16064;DHT22;8136;53.172;8.256;2023-02-26T02:05:42;1.40;99.90
16064;DHT22;8136;53.172;8.256;2023-02-26T02:08:11;1.30;99.90
16064;DHT22;8136;53.172;8.256;2023-02-26T02:10:41;1.30;99.90
16064;DHT22;8136;53.172;8.256;2023-02-26T02:13:15;1.20;99.90
16064;DHT22;8136;53.172;8.256;2023-02-26T02:15:52;1.20;99.90
16064;DHT22;8136;53.172;8.256;2023-02-26T02:18:31;1.20;99.90
16064;DHT22;8136;53.172;8.256;2023-02-26T02:21:27;1.10;99.90
16064;DHT22;8136;53.172;8.256;2023-02-26T02:23:59;1.20;99.90
16064;DHT22;8136;53.172;8.256;2023-02-26T02:30:01;1.20;99.90
16064;DHT22;8136;53.172;8.256;2023-02-26T02:32:35;1.10;99.90
16064;DHT22;8136;53.172;8.256;2023-02-26T02:35:10;1.10;99.90
16064;DHT22;8136;53.172;8.256;2023-02-26T02:37:42;1.10;99.90
16064;DHT22;8136;53.172;8.256;2023-02-26T02:40:13;1.10;99.90
16064;DHT22;8136;53.172;8.256;2023-02-26T02:42:45;1.10;99.90
16064;DHT22;8136;53.172;8.256;2023-02-26T02:45:17;1.10;99.90
16064;DHT22;8136;53.172;8.256;2023-02-26T02:47:49;1.10;99.90
16064;DHT22;8136;53.172;8.256;2023-02-26T02:50:23;1.10;99.90
16064;DHT22;8136;53.172;8.256;2023-02-26T02:52:55;1.00;99.90
16064;DHT22;8136;53.172;8.256;2023-02-26T02:55:26;1.00;99.90
16064;DHT22;8136;53.172;8.256;2023-02-26T02:57:57;1.10;99.90
16064;DHT22;8136;53.172;8.256;2023-02-26T03:00:26;1.10;99.90
16064;DHT22;8136;53.172;8.256;2023-02-26T03:03:01;1.10;99.90
16064;DHT22;8136;53.172;8.256;2023-02-26T03:05:30;1.00;99.90
16064;DHT22;8136;53.172;8.256;2023-02-26T03:08:00;1.00;99.90
16064;DHT22;8136;53.172;8.256;2023-02-26T03:10:29;0.90;99.90
16064;DHT22;8136;53.172;8.256;2023-02-26T03:12:56;1.00;99.90
16064;DHT22;8136;53.172;8.256;2023-02-26T03:15:30;1.00;99.90
16064;DHT22;8136;53.172;8.256;2023-02-26T03:18:05;0.90;99.90
16064;DHT22;8136;53.172;8.256;2023-02-26T03:20:40;0.90;99.90
16064;DHT22;8136;53.172;8.256;2023-02-26T03:23:13;0.90;99.90
16064;DHT22;8136;53.172;8.256;2023-02-26T03:25:46;0.90;99.90
16064;DHT22;8136;53.172;8.256;2023-02-26T03:28:18;1.00;99.90
16064;DHT22;8136;53.172;8.256;2023-02-26T03:33:23;0.90;99.90
16064;DHT22;8136;53.172;8.256;2023-02-26T03:35:56;0.90;99.90
16064;DHT22;8136;53.172;8.256;2023-02-26T03:38:26;0.90;99.90
16064;DHT22;8136;53.172;8.256;2023-02-26T03:40:57;0.90;99.90
16064;DHT22;8136;53.172;8.256;2023-02-26T03:43:37;0.80;99.90
16064;DHT22;8136;53.172;8.256;2023-02-26T03:46:08;0.80;99.90
16064;DHT22;8136;53.172;8.256;2023-02-26T03:48:37;0.80;99.90
16064;DHT22;8136;53.172;8.256;2023-02-26T03:51:07;0.80;99.90
16064;DHT22;8136;53.172;8.256;2023-02-26T03:53:39;0.80;99.90
16064;DHT22;8136;53.172;8.256;2023-02-26T03:56:14;0.80;99.90
16064;DHT22;8136;53.172;8.256;2023-02-26T03:58:42;0.80;99.90
16064;DHT22;8136;53.172;8.256;2023-02-26T04:01:14;0.80;99.90
16064;DHT22;8136;53.172;8.256;2023-02-26T04:03:48;0.80;99.90
16064;DHT22;8136;53.172;8.256;2023-02-26T04:06:16;0.80;99.90
16064;DHT22;8136;53.172;8.256;2023-02-26T04:08:45;0.80;99.90
16064;DHT22;8136;53.172;8.256;2023-02-26T04:11:15;0.70;99.90
16064;DHT22;8136;53.172;8.256;2023-02-26T04:13:43;0.70;99.90
16064;DHT22;8136;53.172;8.256;2023-02-26T04:16:10;0.80;99.90
16064;DHT22;8136;53.172;8.256;2023-02-26T04:18:37;0.80;99.90
16064;DHT22;8136;53.172;8.256;2023-02-26T04:21:09;0.80;99.90
16064;DHT22;8136;53.172;8.256;2023-02-26T04:23:36;0.80;99.90
16064;DHT22;8136;53.172;8.256;2023-02-26T04:26:03;0.80;99.90
16064;DHT22;8136;53.172;8.256;2023-02-26T04:28:30;0.80;99.90
16064;DHT22;8136;53.172;8.256;2023-02-26T04:30:56;0.80;99.90
16064;DHT22;8136;53.172;8.256;2023-02-26T04:33:23;0.80;99.90
16064;DHT22;8136;53.172;8.256;2023-02-26T04:35:51;0.80;99.90
16064;DHT22;8136;53.172;8.256;2023-02-26T04:38:19;0.70;99.90
16064;DHT22;8136;53.172;8.256;2023-02-26T04:40:47;0.70;99.90
16064;DHT22;8136;53.172;8.256;2023-02-26T04:43:14;0.70;99.90
16064;DHT22;8136;53.172;8.256;2023-02-26T04:45:41;0.70;99.90
16064;DHT22;8136;53.172;8.256;2023-02-26T04:48:07;0.70;99.90
16064;DHT22;8136;53.172;8.256;2023-02-26T04:50:34;0.70;99.90
16064;DHT22;8136;53.172;8.256;2023-02-26T04:53:01;0.70;99.90
16064;DHT22;8136;53.172;8.256;2023-02-26T04:55:29;0.70;99.90
16064;DHT22;8136;53.172;8.256;2023-02-26T04:57:55;0.70;99.90
16064;DHT22;8136;53.172;8.256;2023-02-26T05:00:22;0.70;99.90
16064;DHT22;8136;53.172;8.256;2023-02-26T05:02:50;0.70;99.90
16064;DHT22;8136;53.172;8.256;2023-02-26T05:05:17;0.70;99.90
16064;DHT22;8136;53.172;8.256;2023-02-26T05:07:44;0.70;99.90
16064;DHT22;8136;53.172;8.256;2023-02-26T05:10:11;0.70;99.90
16064;DHT22;8136;53.172;8.256;2023-02-26T05:12:39;0.60;99.90
16064;DHT22;8136;53.172;8.256;2023-02-26T05:15:07;0.70;99.90
16064;DHT22;8136;53.172;8.256;2023-02-26T05:17:35;0.70;99.90
16064;DHT22;8136;53.172;8.256;2023-02-26T05:20:03;0.60;99.90
16064;DHT22;8136;53.172;8.256;2023-02-26T05:22:30;0.60;99.90
16064;DHT22;8136;53.172;8.256;2023-02-26T05:24:57;0.50;99.90
16064;DHT22;8136;53.172;8.256;2023-02-26T05:27:23;0.60;99.90
16064;DHT22;8136;53.172;8.256;2023-02-26T05:29:51;0.60;99.90
16064;DHT22;8136;53.172;8.256;2023-02-26T05:32:18;0.60;99.90
16064;DHT22;8136;53.172;8.256;2023-02-26T05:34:45;0.60;99.90
16064;DHT22;8136;53.172;8.256;2023-02-26T05:37:12;0.60;99.90
16064;DHT22;8136;53.172;8.256;2023-02-26T05:39:38;0.60;99.90
16064;DHT22;8136;53.172;8.256;2023-02-26T05:42:06;0.60;99.90
16064;DHT22;8136;53.172;8.256;2023-02-26T05:44:33;0.60;99.90
16064;DHT22;8136;53.172;8.256;2023-02-26T05:47:01;0.60;99.90
16064;DHT22;8136;53.172;8.256;2023-02-26T05:49:28;0.60;99.90
16064;DHT22;8136;53.172;8.256;2023-02-26T05:51:55;0.60;99.90
16064;DHT22;8136;53.172;8.256;2023-02-26T05:54:22;0.60;99.90
16064;DHT22;8136;53.172;8.256;2023-02-26T05:56:48;0.60;99.90
16064;DHT22;8136;53.172;8.256;2023-02-26T05:59:15;0.60;99.90
16064;DHT22;8136;53.172;8.256;2023-02-26T06:01:42;0.50;99.90
16064;DHT22;8136;53.172;8.256;2023-02-26T06:04:10;0.50;99.90
16064;DHT22;8136;53.172;8.256;2023-02-26T06:06:37;0.50;99.90
16064;DHT22;8136;53.172;8.256;2023-02-26T06:09:04;0.50;99.90
16064;DHT22;8136;53.172;8.256;2023-02-26T06:11:31;0.50;99.90
16064;DHT22;8136;53.172;8.256;2023-02-26T06:13:58;0.50;99.90
16064;DHT22;8136;53.172;8.256;2023-02-26T06:16:26;0.50;99.90
16064;DHT22;8136;53.172;8.256;2023-02-26T06:18:52;0.50;99.90
16064;DHT22;8136;53.172;8.256;2023-02-26T06:21:20;0.50;99.90
16064;DHT22;8136;53.172;8.256;2023-02-26T06:23:47;0.50;99.90
16064;DHT22;8136;53.172;8.256;2023-02-26T06:26:14;0.50;99.90
16064;DHT22;8136;53.172;8.256;2023-02-26T06:28:41;0.50;99.90
16064;DHT22;8136;53.172;8.256;2023-02-26T06:31:07;0.60;99.90
16064;DHT22;8136;53.172;8.256;2023-02-26T06:33:34;0.60;99.90
16064;DHT22;8136;53.172;8.256;2023-02-26T06:36:01;0.60;99.90
16064;DHT22;8136;53.172;8.256;2023-02-26T06:38:29;0.60;99.90
16064;DHT22;8136;53.172;8.256;2023-02-26T06:40:56;0.70;99.90
16064;DHT22;8136;53.172;8.256;2023-02-26T06:43:23;0.70;99.90
16064;DHT22;8136;53.172;8.256;2023-02-26T06:45:50;0.70;99.90
16064;DHT22;8136;53.172;8.256;2023-02-26T06:48:16;0.70;99.90
16064;DHT22;8136;53.172;8.256;2023-02-26T06:50:43;0.70;99.90
16064;DHT22;8136;53.172;8.256;2023-02-26T06:53:10;0.70;99.90
16064;DHT22;8136;53.172;8.256;2023-02-26T06:55:42;0.70;99.90
16064;DHT22;8136;53.172;8.256;2023-02-26T06:58:10;0.70;99.90
16064;DHT22;8136;53.172;8.256;2023-02-26T07:00:37;0.80;99.90
16064;DHT22;8136;53.172;8.256;2023-02-26T07:03:05;0.70;99.90
16064;DHT22;8136;53.172;8.256;2023-02-26T07:05:32;0.80;99.90
16064;DHT22;8136;53.172;8.256;2023-02-26T07:07:59;0.80;99.90
16064;DHT22;8136;53.172;8.256;2023-02-26T07:10:26;0.90;99.90
16064;DHT22;8136;53.172;8.256;2023-02-26T07:12:54;1.00;99.90
16064;DHT22;8136;53.172;8.256;2023-02-26T07:15:20;0.90;99.90
16064;DHT22;8136;53.172;8.256;2023-02-26T07:17:47;1.00;99.90
16064;DHT22;8136;53.172;8.256;2023-02-26T07:20:14;1.00;99.90
16064;DHT22;8136;53.172;8.256;2023-02-26T07:22:42;1.00;99.90
16064;DHT22;8136;53.172;8.256;2023-02-26T07:25:10;1.00;99.90
16064;DHT22;8136;53.172;8.256;2023-02-26T07:27:38;1.10;99.90
16064;DHT22;8136;53.172;8.256;2023-02-26T07:30:08;1.20;99.90
16064;DHT22;8136;53.172;8.256;2023-02-26T07:32:35;1.20;99.90
16064;DHT22;8136;53.172;8.256;2023-02-26T07:35:02;1.30;99.90
16064;DHT22;8136;53.172;8.256;2023-02-26T07:37:29;1.30;99.90
16064;DHT22;8136;53.172;8.256;2023-02-26T07:39:56;1.30;99.90
16064;DHT22;8136;53.172;8.256;2023-02-26T07:42:23;1.40;99.90
16064;DHT22;8136;53.172;8.256;2023-02-26T07:44:50;1.50;99.90
16064;DHT22;8136;53.172;8.256;2023-02-26T07:47:18;1.50;99.90
16064;DHT22;8136;53.172;8.256;2023-02-26T07:49:45;1.50;99.90
16064;DHT22;8136;53.172;8.256;2023-02-26T07:52:11;1.60;99.90
16064;DHT22;8136;53.172;8.256;2023-02-26T07:54:38;1.70;99.90
16064;DHT22;8136;53.172;8.256;2023-02-26T07:57:05;1.70;99.90
16064;DHT22;8136;53.172;8.256;2023-02-26T07:59:32;1.80;99.90
16064;DHT22;8136;53.172;8.256;2023-02-26T08:01:59;1.90;99.90
16064;DHT22;8136;53.172;8.256;2023-02-26T08:04:27;2.00;99.90
16064;DHT22;8136;53.172;8.256;2023-02-26T08:06:54;2.00;99.90
16064;DHT22;8136;53.172;8.256;2023-02-26T08:09:21;2.00;99.90
16064;DHT22;8136;53.172;8.256;2023-02-26T08:11:48;2.00;99.90
16064;DHT22;8136;53.172;8.256;2023-02-26T08:14:15;2.10;99.90
16064;DHT22;8136;53.172;8.256;2023-02-26T08:16:42;2.10;99.90
16064;DHT22;8136;53.172;8.256;2023-02-26T08:19:09;2.20;99.90
16064;DHT22;8136;53.172;8.256;2023-02-26T08:21:37;2.20;99.90
16064;DHT22;8136;53.172;8.256;2023-02-26T08:24:04;2.20;99.90
16064;DHT22;8136;53.172;8.256;2023-02-26T08:26:34;2.30;99.90
16064;DHT22;8136;53.172;8.256;2023-02-26T08:29:01;2.40;99.90
16064;DHT22;8136;53.172;8.256;2023-02-26T08:31:28;2.40;99.90
16064;DHT22;8136;53.172;8.256;2023-02-26T08:33:56;2.40;99.90
16064;DHT22;8136;53.172;8.256;2023-02-26T08:36:23;2.50;99.90
16064;DHT22;8136;53.172;8.256;2023-02-26T08:38:51;2.60;99.90
16064;DHT22;8136;53.172;8.256;2023-02-26T08:41:18;2.60;99.90
16064;DHT22;8136;53.172;8.256;2023-02-26T08:43:45;2.60;99.90
16064;DHT22;8136;53.172;8.256;2023-02-26T08:46:11;2.70;99.90
16064;DHT22;8136;53.172;8.256;2023-02-26T08:48:38;2.80;99.90
16064;DHT22;8136;53.172;8.256;2023-02-26T08:51:05;2.80;99.90
16064;DHT22;8136;53.172;8.256;2023-02-26T08:53:32;2.90;99.90
16064;DHT22;8136;53.172;8.256;2023-02-26T08:59:21;2.90;99.90
16064;DHT22;8136;53.172;8.256;2023-02-26T09:01:48;3.00;99.90
16064;DHT22;8136;53.172;8.256;2023-02-26T09:04:15;3.00;99.90
16064;DHT22;8136;53.172;8.256;2023-02-26T09:06:42;3.20;99.90
16064;DHT22;8136;53.172;8.256;2023-02-26T09:09:09;3.30;99.90
16064;DHT22;8136;53.172;8.256;2023-02-26T09:11:36;3.30;99.90
16064;DHT22;8136;53.172;8.256;2023-02-26T09:14:03;3.40;99.90
16064;DHT22;8136;53.172;8.256;2023-02-26T09:16:32;3.40;99.90
16064;DHT22;8136;53.172;8.256;2023-02-26T09:19:01;3.40;99.90
16064;DHT22;8136;53.172;8.256;2023-02-26T09:21:28;3.60;99.90
16064;DHT22;8136;53.172;8.256;2023-02-26T09:23:55;3.60;99.90
16064;DHT22;8136;53.172;8.256;2023-02-26T09:26:22;3.70;99.90
16064;DHT22;8136;53.172;8.256;2023-02-26T09:28:49;3.80;99.90
16064;DHT22;8136;53.172;8.256;2023-02-26T09:33:45;4.00;99.90
16064;DHT22;8136;53.172;8.256;2023-02-26T09:36:11;4.00;99.90
16064;DHT22;8136;53.172;8.256;2023-02-26T09:38:38;4.10;99.90
16064;DHT22;8136;53.172;8.256;2023-02-26T09:41:08;4.20;99.90
16064;DHT22;8136;53.172;8.256;2023-02-26T09:46:42;4.40;99.90
16064;DHT22;8136;53.172;8.256;2023-02-26T09:49:20;4.60;99.90
16064;DHT22;8136;53.172;8.256;2023-02-26T09:51:52;4.60;99.90
16064;DHT22;8136;53.172;8.256;2023-02-26T09:54:21;4.60;99.90
16064;DHT22;8136;53.172;8.256;2023-02-26T09:56:50;4.70;99.90
16064;DHT22;8136;53.172;8.256;2023-02-26T09:59:18;4.80;99.90
16064;DHT22;8136;53.172;8.256;2023-02-26T10:01:50;4.80;99.90
16064;DHT22;8136;53.172;8.256;2023-02-26T10:04:29;4.80;99.90
16064;DHT22;8136;53.172;8.256;2023-02-26T10:07:13;4.90;99.90
16064;DHT22;8136;53.172;8.256;2023-02-26T10:09:57;5.00;99.90
16064;DHT22;8136;53.172;8.256;2023-02-26T10:12:28;5.00;99.90
16064;DHT22;8136;53.172;8.256;2023-02-26T10:14:58;5.10;99.90
16064;DHT22;8136;53.172;8.256;2023-02-26T10:17:31;5.10;99.90
16064;DHT22;8136;53.172;8.256;2023-02-26T10:20:03;5.20;99.90
16064;DHT22;8136;53.172;8.256;2023-02-26T10:22:38;5.10;99.90
16064;DHT22;8136;53.172;8.256;2023-02-26T10:25:11;5.20;99.90
16064;DHT22;8136;53.172;8.256;2023-02-26T10:27:47;5.40;99.90
16064;DHT22;8136;53.172;8.256;2023-02-26T10:30:21;5.50;99.90
16064;DHT22;8136;53.172;8.256;2023-02-26T10:32:58;5.60;99.90
16064;DHT22;8136;53.172;8.256;2023-02-26T10:35:31;5.70;99.90
16064;DHT22;8136;53.172;8.256;2023-02-26T10:38:05;5.70;99.90
16064;DHT22;8136;53.172;8.256;2023-02-26T10:40:40;5.60;99.90
16064;DHT22;8136;53.172;8.256;2023-02-26T10:43:13;5.60;99.90
16064;DHT22;8136;53.172;8.256;2023-02-26T10:45:55;5.40;99.90
16064;DHT22;8136;53.172;8.256;2023-02-26T10:48:34;5.40;99.90
16064;DHT22;8136;53.172;8.256;2023-02-26T10:51:11;5.40;99.90
16064;DHT22;8136;53.172;8.256;2023-02-26T10:53:42;5.40;99.90
16064;DHT22;8136;53.172;8.256;2023-02-26T10:56:12;5.40;99.90
16064;DHT22;8136;53.172;8.256;2023-02-26T10:58:41;5.30;99.90
16064;DHT22;8136;53.172;8.256;2023-02-26T11:01:13;5.20;99.90
16064;DHT22;8136;53.172;8.256;2023-02-26T11:03:43;5.30;99.90
16064;DHT22;8136;53.172;8.256;2023-02-26T11:06:17;5.50;99.90
16064;DHT22;8136;53.172;8.256;2023-02-26T11:08:47;5.70;99.90
16064;DHT22;8136;53.172;8.256;2023-02-26T11:11:40;5.70;99.90
16064;DHT22;8136;53.172;8.256;2023-02-26T11:14:08;5.80;99.90
16064;DHT22;8136;53.172;8.256;2023-02-26T11:16:41;6.00;99.90
16064;DHT22;8136;53.172;8.256;2023-02-26T11:19:08;6.10;99.90
16064;DHT22;8136;53.172;8.256;2023-02-26T11:21:39;6.00;99.90
16064;DHT22;8136;53.172;8.256;2023-02-26T11:24:11;6.00;99.90
16064;DHT22;8136;53.172;8.256;2023-02-26T11:26:42;6.10;99.90
16064;DHT22;8136;53.172;8.256;2023-02-26T11:29:14;6.40;99.90
16064;DHT22;8136;53.172;8.256;2023-02-26T11:31:41;6.60;99.90
16064;DHT22;8136;53.172;8.256;2023-02-26T11:34:10;6.60;99.90
16064;DHT22;8136;53.172;8.256;2023-02-26T11:36:41;6.70;99.90
16064;DHT22;8136;53.172;8.256;2023-02-26T11:39:14;6.70;99.90
16064;DHT22;8136;53.172;8.256;2023-02-26T11:41:44;6.70;99.90
16064;DHT22;8136;53.172;8.256;2023-02-26T11:44:14;6.50;99.90
16064;DHT22;8136;53.172;8.256;2023-02-26T11:46:45;6.50;99.90
16064;DHT22;8136;53.172;8.256;2023-02-26T11:49:15;6.40;99.90
16064;DHT22;8136;53.172;8.256;2023-02-26T11:51:45;6.30;99.90
16064;DHT22;8136;53.172;8.256;2023-02-26T11:54:22;6.30;99.90
16064;DHT22;8136;53.172;8.256;2023-02-26T11:56:49;6.50;99.90
16064;DHT22;8136;53.172;8.256;2023-02-26T11:59:17;6.70;99.90
16064;DHT22;8136;53.172;8.256;2023-02-26T12:01:44;6.80;99.90
16064;DHT22;8136;53.172;8.256;2023-02-26T12:04:12;6.80;99.90
16064;DHT22;8136;53.172;8.256;2023-02-26T12:06:40;7.00;99.90
16064;DHT22;8136;53.172;8.256;2023-02-26T12:09:11;7.20;99.90
16064;DHT22;8136;53.172;8.256;2023-02-26T12:12:04;7.40;99.90
16064;DHT22;8136;53.172;8.256;2023-02-26T12:14:45;7.70;99.90
16064;DHT22;8136;53.172;8.256;2023-02-26T12:17:28;7.80;99.90
16064;DHT22;8136;53.172;8.256;2023-02-26T12:20:06;8.00;99.90
16064;DHT22;8136;53.172;8.256;2023-02-26T12:22:48;8.00;99.90
16064;DHT22;8136;53.172;8.256;2023-02-26T12:28:37;8.30;99.90
16064;DHT22;8136;53.172;8.256;2023-02-26T12:31:24;8.40;99.90
16064;DHT22;8136;53.172;8.256;2023-02-26T12:34:02;8.60;99.90
16064;DHT22;8136;53.172;8.256;2023-02-26T12:36:47;8.80;99.90
16064;DHT22;8136;53.172;8.256;2023-02-26T12:39:24;9.00;99.90
16064;DHT22;8136;53.172;8.256;2023-02-26T12:42:08;8.90;99.90
16064;DHT22;8136;53.172;8.256;2023-02-26T12:44:50;9.10;99.90
16064;DHT22;8136;53.172;8.256;2023-02-26T12:47:35;9.30;99.90
16064;DHT22;8136;53.172;8.256;2023-02-26T12:50:24;9.60;99.90
16064;DHT22;8136;53.172;8.256;2023-02-26T12:53:30;9.70;99.90
16064;DHT22;8136;53.172;8.256;2023-02-26T12:56:12;9.70;99.90
16064;DHT22;8136;53.172;8.256;2023-02-26T12:58:56;9.70;99.90
16064;DHT22;8136;53.172;8.256;2023-02-26T13:01:51;9.60;99.90
16064;DHT22;8136;53.172;8.256;2023-02-26T13:04:40;9.70;99.90
16064;DHT22;8136;53.172;8.256;2023-02-26T13:10:02;10.00;99.90
16064;DHT22;8136;53.172;8.256;2023-02-26T13:12:37;10.00;99.90
16064;DHT22;8136;53.172;8.256;2023-02-26T13:15:28;9.70;99.90
16064;DHT22;8136;53.172;8.256;2023-02-26T13:18:02;9.30;99.90
16064;DHT22;8136;53.172;8.256;2023-02-26T13:20:31;9.00;99.90
16064;DHT22;8136;53.172;8.256;2023-02-26T13:23:00;8.60;99.90
16064;DHT22;8136;53.172;8.256;2023-02-26T13:25:34;8.60;99.90
16064;DHT22;8136;53.172;8.256;2023-02-26T13:28:17;8.60;99.90
16064;DHT22;8136;53.172;8.256;2023-02-26T13:30:50;8.50;99.90
16064;DHT22;8136;53.172;8.256;2023-02-26T13:33:21;8.40;99.90
16064;DHT22;8136;53.172;8.256;2023-02-26T13:35:52;8.50;99.90
16064;DHT22;8136;53.172;8.256;2023-02-26T13:38:23;8.60;99.90
16064;DHT22;8136;53.172;8.256;2023-02-26T13:41:06;8.70;99.90
16064;DHT22;8136;53.172;8.256;2023-02-26T13:43:54;8.90;99.90
16064;DHT22;8136;53.172;8.256;2023-02-26T13:46:34;8.90;99.90
16064;DHT22;8136;53.172;8.256;2023-02-26T13:49:07;9.00;99.90
16064;DHT22;8136;53.172;8.256;2023-02-26T13:51:39;9.10;99.90
16064;DHT22;8136;53.172;8.256;2023-02-26T13:54:17;9.30;99.90
16064;DHT22;8136;53.172;8.256;2023-02-26T13:57:04;9.60;99.90
16064;DHT22;8136;53.172;8.256;2023-02-26T13:59:37;10.00;99.90
16064;DHT22;8136;53.172;8.256;2023-02-26T14:02:50;10.00;99.90
16064;DHT22;8136;53.172;8.256;2023-02-26T14:05:33;10.10;99.30
16064;DHT22;8136;53.172;8.256;2023-02-26T14:08:25;9.90;98.90
16064;DHT22;8136;53.172;8.256;2023-02-26T14:10:56;9.70;99.00
16064;DHT22;8136;53.172;8.256;2023-02-26T14:13:32;9.80;99.70
16064;DHT22;8136;53.172;8.256;2023-02-26T14:16:00;10.90;99.50
16064;DHT22;8136;53.172;8.256;2023-02-26T14:18:35;11.80;97.70
16064;DHT22;8136;53.172;8.256;2023-02-26T14:21:32;12.40;95.70
16064;DHT22;8136;53.172;8.256;2023-02-26T14:24:03;12.40;96.00
16064;DHT22;8136;53.172;8.256;2023-02-26T14:26:32;13.00;95.50
16064;DHT22;8136;53.172;8.256;2023-02-26T14:29:15;13.60;95.10
16064;DHT22;8136;53.172;8.256;2023-02-26T14:34:35;15.30;92.20
16064;DHT22;8136;53.172;8.256;2023-02-26T14:37:06;15.40;91.70
16064;DHT22;8136;53.172;8.256;2023-02-26T14:39:38;14.90;91.20
16064;DHT22;8136;53.172;8.256;2023-02-26T14:42:08;14.00;91.80
16064;DHT22;8136;53.172;8.256;2023-02-26T14:44:40;14.50;92.40
16064;DHT22;8136;53.172;8.256;2023-02-26T14:47:08;15.40;92.10
16064;DHT22;8136;53.172;8.256;2023-02-26T14:49:39;16.00;90.50
16064;DHT22;8136;53.172;8.256;2023-02-26T14:55:34;14.80;90.20
16064;DHT22;8136;53.172;8.256;2023-02-26T14:58:31;13.60;91.80
16064;DHT22;8136;53.172;8.256;2023-02-26T15:01:06;13.60;92.60
16064;DHT22;8136;53.172;8.256;2023-02-26T15:03:51;13.80;91.80
16064;DHT22;8136;53.172;8.256;2023-02-26T15:06:36;13.20;91.90
16064;DHT22;8136;53.172;8.256;2023-02-26T15:09:13;13.00;91.90
16064;DHT22;8136;53.172;8.256;2023-02-26T15:12:02;12.20;92.70
16064;DHT22;8136;53.172;8.256;2023-02-26T15:15:00;11.60;93.10
16064;DHT22;8136;53.172;8.256;2023-02-26T15:20:23;10.50;94.70
16064;DHT22;8136;53.172;8.256;2023-02-26T15:23:02;10.50;96.30
16064;DHT22;8136;53.172;8.256;2023-02-26T15:25:34;11.70;95.20
16064;DHT22;8136;53.172;8.256;2023-02-26T15:28:02;13.00;94.00
16064;DHT22;8136;53.172;8.256;2023-02-26T15:30:30;13.80;92.40
16064;DHT22;8136;53.172;8.256;2023-02-26T15:32:59;14.30;91.80
16064;DHT22;8136;53.172;8.256;2023-02-26T15:35:30;14.90;91.10
16064;DHT22;8136;53.172;8.256;2023-02-26T15:38:01;15.50;91.00
16064;DHT22;8136;53.172;8.256;2023-02-26T15:40:32;15.90;89.80
16064;DHT22;8136;53.172;8.256;2023-02-26T15:43:01;16.30;87.60
16064;DHT22;8136;53.172;8.256;2023-02-26T15:45:32;16.40;86.90
16064;DHT22;8136;53.172;8.256;2023-02-26T15:48:03;16.60;85.10
16064;DHT22;8136;53.172;8.256;2023-02-26T15:50:35;16.50;84.20
16064;DHT22;8136;53.172;8.256;2023-02-26T15:53:09;16.40;84.20
16064;DHT22;8136;53.172;8.256;2023-02-26T15:55:42;16.70;85.60
16064;DHT22;8136;53.172;8.256;2023-02-26T15:58:18;16.80;83.80
16064;DHT22;8136;53.172;8.256;2023-02-26T16:00:51;16.60;83.30
16064;DHT22;8136;53.172;8.256;2023-02-26T16:03:24;16.50;83.40
16064;DHT22;8136;53.172;8.256;2023-02-26T16:05:53;16.30;82.80
16064;DHT22;8136;53.172;8.256;2023-02-26T16:08:21;16.40;81.70
16064;DHT22;8136;53.172;8.256;2023-02-26T16:10:50;16.20;81.50
16064;DHT22;8136;53.172;8.256;2023-02-26T16:13:25;15.90;82.20
16064;DHT22;8136;53.172;8.256;2023-02-26T16:15:53;15.80;81.50
16064;DHT22;8136;53.172;8.256;2023-02-26T16:18:22;15.70;83.00
16064;DHT22;8136;53.172;8.256;2023-02-26T16:20:53;15.50;82.90
16064;DHT22;8136;53.172;8.256;2023-02-26T16:23:36;15.20;84.30
16064;DHT22;8136;53.172;8.256;2023-02-26T16:26:06;14.80;84.90
16064;DHT22;8136;53.172;8.256;2023-02-26T16:28:36;14.40;86.60
16064;DHT22;8136;53.172;8.256;2023-02-26T16:31:15;14.30;86.30
16064;DHT22;8136;53.172;8.256;2023-02-26T16:33:51;14.10;87.20
16064;DHT22;8136;53.172;8.256;2023-02-26T16:36:19;13.80;87.30
16064;DHT22;8136;53.172;8.256;2023-02-26T16:38:57;13.50;88.00
16064;DHT22;8136;53.172;8.256;2023-02-26T16:41:27;12.90;88.20
16064;DHT22;8136;53.172;8.256;2023-02-26T16:43:56;12.00;90.20
16064;DHT22;8136;53.172;8.256;2023-02-26T16:46:32;11.20;91.10
16064;DHT22;8136;53.172;8.256;2023-02-26T16:49:01;10.40;92.20
16064;DHT22;8136;53.172;8.256;2023-02-26T16:51:31;9.90;93.20
16064;DHT22;8136;53.172;8.256;2023-02-26T16:54:05;9.40;93.90
16064;DHT22;8136;53.172;8.256;2023-02-26T16:56:37;8.90;94.90
16064;DHT22;8136;53.172;8.256;2023-02-26T16:59:10;8.70;95.60